Time;durP1;ratioP1;P1;durP2;ratioP2;P2;SDS_P1;SDS_P2;PMS_P1;PMS_P2;Temp;Humidity;BMP_temperature;BMP_pressure;BME280_temperature;BME280_humidity;BME280_pressure;Samples;Min_cycle;Max_cycle;Signal;HPM_P1;HPM_P2
2023/04/15 00:02:14;;;;;;;;;;;9.70;66.20;;;;;;5070567;28;19993;-70
2023/04/15 00:04:40;;;;;;;;;;;9.70;66.30;;;;;;5065471;28;19936;-70
2023/04/15 00:07:07;;;;;;;;;;;9.70;66.30;;;;;;5064314;28;19928;-70
2023/04/15 00:09:35;;;;;;;;;;;9.60;66.20;;;;;;5064011;28;19928;-70
2023/04/15 00:12:02;;;;;;;;;;;9.60;66.30;;;;;;5063422;28;20518;-70
2023/04/15 00:14:29;;;;;;;;;;;9.60;66.50;;;;;;5060306;28;20039;-71
2023/04/15 00:16:56;;;;;;;;;;;9.50;66.50;;;;;;5065021;28;20471;-69
2023/04/15 00:19:23;;;;;;;;;;;9.40;66.60;;;;;;5071771;28;20299;-69
2023/04/15 00:21:49;;;;;;;;;;;9.40;66.70;;;;;;5067034;28;19928;-70
2023/04/15 00:24:16;;;;;;;;;;;9.40;66.70;;;;;;5072533;28;19932;-70
2023/04/15 00:26:43;;;;;;;;;;;9.40;66.80;;;;;;5070464;28;20571;-69
2023/04/15 00:29:10;;;;;;;;;;;9.40;66.80;;;;;;5068275;28;20002;-69
2023/04/15 00:31:37;;;;;;;;;;;9.40;66.90;;;;;;5061758;28;19936;-69
2023/04/15 00:34:03;;;;;;;;;;;9.40;66.90;;;;;;5071241;28;19928;-69
2023/04/15 00:36:30;;;;;;;;;;;9.30;67.00;;;;;;5065142;28;20474;-69
2023/04/15 00:38:57;;;;;;;;;;;9.30;67.10;;;;;;5068325;28;19929;-69
2023/04/15 00:41:24;;;;;;;;;;;9.30;67.40;;;;;;5068611;28;19932;-69
2023/04/15 00:43:52;;;;;;;;;;;9.30;67.50;;;;;;5067068;28;20019;-69
2023/04/15 00:46:20;;;;;;;;;;;9.30;67.70;;;;;;5066343;28;19936;-69
2023/04/15 00:48:47;;;;;;;;;;;9.20;67.70;;;;;;5069004;28;19934;-69
2023/04/15 00:51:14;;;;;;;;;;;9.20;68.60;;;;;;5063670;28;19936;-69
2023/04/15 00:53:40;;;;;;;;;;;9.20;67.90;;;;;;5074538;28;20277;-69
2023/04/15 00:56:07;;;;;;;;;;;9.10;67.90;;;;;;5065531;28;19932;-69
2023/04/15 00:58:34;;;;;;;;;;;9.20;68.10;;;;;;5075982;28;19935;-69
2023/04/15 01:01:02;;;;;;;;;;;9.10;68.10;;;;;;5067738;28;20294;-69
2023/04/15 01:03:29;;;;;;;;;;;9.00;68.10;;;;;;5075777;28;19928;-70
2023/04/15 01:05:57;;;;;;;;;;;9.10;68.20;;;;;;5076054;28;19935;-70
2023/04/15 01:08:24;;;;;;;;;;;9.00;68.20;;;;;;5063570;28;20740;-69
2023/04/15 01:10:51;;;;;;;;;;;9.00;68.20;;;;;;5076381;28;19928;-70
2023/04/15 01:13:17;;;;;;;;;;;9.00;68.40;;;;;;5063528;28;19982;-68
2023/04/15 01:15:44;;;;;;;;;;;9.00;68.50;;;;;;5064039;28;19928;-68
2023/04/15 01:18:12;;;;;;;;;;;8.90;68.50;;;;;;5069452;28;19928;-68
2023/04/15 01:20:38;;;;;;;;;;;8.90;68.60;;;;;;5070696;28;19936;-68
2023/04/15 01:23:05;;;;;;;;;;;8.90;68.70;;;;;;5074173;28;20754;-68
2023/04/15 01:28:36;;;;;;;;;;;8.90;68.80;;;;;;5047691;28;19928;-68
2023/04/15 01:31:07;;;;;;;;;;;8.80;68.80;;;;;;5062161;28;19935;-68
2023/04/15 01:33:33;;;;;;;;;;;8.80;68.90;;;;;;5058076;28;19932;-69
2023/04/15 01:36:00;;;;;;;;;;;8.80;69.00;;;;;;5061867;28;19943;-69
2023/04/15 01:38:27;;;;;;;;;;;8.80;69.10;;;;;;5064082;28;19932;-68
2023/04/15 01:40:53;;;;;;;;;;;8.70;69.20;;;;;;5062718;28;19942;-67
2023/04/15 01:43:20;;;;;;;;;;;8.70;69.20;;;;;;5058342;28;19964;-68
2023/04/15 01:45:48;;;;;;;;;;;8.70;69.20;;;;;;5054834;28;19950;-68
2023/04/15 01:48:15;;;;;;;;;;;8.70;69.30;;;;;;5063618;28;19944;-68
2023/04/15 01:50:42;;;;;;;;;;;8.70;69.40;;;;;;5062511;28;19928;-68
2023/04/15 01:53:09;;;;;;;;;;;8.70;69.40;;;;;;5059102;28;19929;-69
2023/04/15 01:55:36;;;;;;;;;;;8.60;69.40;;;;;;5057926;28;20015;-68
2023/04/15 01:58:03;;;;;;;;;;;8.60;69.50;;;;;;5064513;28;19928;-67
2023/04/15 02:00:31;;;;;;;;;;;8.60;69.60;;;;;;5058520;28;19950;-69
2023/04/15 02:02:59;;;;;;;;;;;8.60;69.60;;;;;;5063536;28;19940;-67
2023/04/15 02:05:26;;;;;;;;;;;8.50;69.70;;;;;;5062849;28;19935;-68
2023/04/15 02:07:53;;;;;;;;;;;8.50;69.80;;;;;;5060757;28;19932;-69
2023/04/15 02:10:20;;;;;;;;;;;8.50;69.90;;;;;;5060661;28;20011;-68
2023/04/15 02:12:46;;;;;;;;;;;8.40;70.00;;;;;;5056974;28;20385;-68
2023/04/15 02:15:13;;;;;;;;;;;8.40;70.00;;;;;;5060887;28;19929;-68
2023/04/15 02:17:39;;;;;;;;;;;8.40;70.10;;;;;;5061067;28;20628;-69
2023/04/15 02:20:09;;;;;;;;;;;8.40;70.10;;;;;;5062558;28;20310;-68
2023/04/15 02:22:35;;;;;;;;;;;8.40;70.20;;;;;;5063612;28;20002;-68
2023/04/15 02:25:02;;;;;;;;;;;8.30;70.20;;;;;;5059081;28;19935;-66
2023/04/15 02:27:29;;;;;;;;;;;8.40;70.40;;;;;;5054875;28;19936;-68
2023/04/15 02:29:55;;;;;;;;;;;8.30;70.40;;;;;;5036719;28;19939;-68
2023/04/15 02:32:23;;;;;;;;;;;8.30;70.50;;;;;;5034609;28;19935;-68
2023/04/15 02:34:50;;;;;;;;;;;8.30;70.50;;;;;;5035458;28;19932;-68
2023/04/15 02:37:19;;;;;;;;;;;8.30;70.60;;;;;;5035419;28;20027;-68
2023/04/15 02:39:45;;;;;;;;;;;8.30;70.70;;;;;;5035746;28;20394;-69
2023/04/15 02:42:12;;;;;;;;;;;8.20;70.70;;;;;;5035608;28;21295;-67
2023/04/15 02:44:38;;;;;;;;;;;8.20;70.80;;;;;;5035867;28;19936;-68
2023/04/15 02:47:06;;;;;;;;;;;8.20;70.90;;;;;;5034314;28;20011;-66
2023/04/15 02:49:32;;;;;;;;;;;8.20;70.90;;;;;;5036032;28;19943;-66
2023/04/15 02:51:59;;;;;;;;;;;8.20;70.90;;;;;;5034164;28;20376;-68
2023/04/15 02:54:28;;;;;;;;;;;8.20;71.00;;;;;;5032411;28;19970;-66
2023/04/15 02:56:55;;;;;;;;;;;8.10;71.00;;;;;;5034414;28;19929;-66
2023/04/15 02:59:22;;;;;;;;;;;8.10;71.10;;;;;;5033772;28;19928;-68
2023/04/15 03:01:48;;;;;;;;;;;8.10;71.10;;;;;;5034325;28;19934;-69
2023/04/15 03:04:15;;;;;;;;;;;8.00;71.20;;;;;;5034728;28;19932;-69
2023/04/15 03:06:42;;;;;;;;;;;8.00;71.20;;;;;;5033967;28;19928;-68
2023/04/15 03:09:08;;;;;;;;;;;8.00;71.30;;;;;;5034943;28;19928;-69
2023/04/15 03:11:39;;;;;;;;;;;8.00;71.40;;;;;;5035789;28;19940;-66
2023/04/15 03:14:06;;;;;;;;;;;8.00;71.50;;;;;;5034958;28;20109;-68
2023/04/15 03:16:32;;;;;;;;;;;7.90;72.10;;;;;;5034130;28;19929;-67
2023/04/15 03:18:59;;;;;;;;;;;7.90;71.40;;;;;;5034574;28;19955;-70
2023/04/15 03:21:26;;;;;;;;;;;7.90;71.50;;;;;;5036867;28;19935;-68
2023/04/15 03:23:53;;;;;;;;;;;7.90;71.60;;;;;;5033628;28;20038;-68
2023/04/15 03:26:26;;;;;;;;;;;7.80;71.60;;;;;;5035065;28;20291;-68
2023/04/15 03:28:54;;;;;;;;;;;7.80;71.70;;;;;;5054876;28;20027;-66
2023/04/15 03:31:21;;;;;;;;;;;7.80;71.80;;;;;;5061044;28;19936;-68
2023/04/15 03:33:48;;;;;;;;;;;7.80;71.90;;;;;;5052190;28;19932;-69
2023/04/15 03:36:14;;;;;;;;;;;7.80;72.00;;;;;;5059512;28;19932;-69
2023/04/15 03:38:41;;;;;;;;;;;7.70;72.10;;;;;;5067085;28;19933;-68
2023/04/15 03:41:08;;;;;;;;;;;7.70;72.10;;;;;;5063180;28;19928;-67
2023/04/15 03:43:34;;;;;;;;;;;7.70;72.20;;;;;;5064737;28;20011;-68
2023/04/15 03:46:02;;;;;;;;;;;7.70;72.30;;;;;;5067491;28;20042;-69
2023/04/15 03:48:29;;;;;;;;;;;7.60;72.30;;;;;;5073698;28;20402;-69
2023/04/15 03:50:56;;;;;;;;;;;7.60;72.30;;;;;;5064947;28;19928;-68
2023/04/15 03:53:22;;;;;;;;;;;7.60;72.40;;;;;;5063979;28;20015;-68
2023/04/15 03:55:49;;;;;;;;;;;7.50;72.40;;;;;;5071243;28;19932;-70
2023/04/15 03:58:15;;;;;;;;;;;7.50;72.60;;;;;;5063819;28;20042;-69
2023/04/15 04:00:42;;;;;;;;;;;7.40;72.60;;;;;;5071242;28;19928;-69
2023/04/15 04:03:10;;;;;;;;;;;7.40;72.70;;;;;;5076714;28;19935;-69
2023/04/15 04:05:37;;;;;;;;;;;7.40;72.90;;;;;;5074718;28;19933;-68
2023/04/15 04:08:04;;;;;;;;;;;7.40;73.00;;;;;;5067380;28;19929;-68
2023/04/15 04:10:31;;;;;;;;;;;7.30;73.20;;;;;;5076417;28;19932;-68
2023/04/15 04:12:57;;;;;;;;;;;7.20;73.20;;;;;;5070472;28;20592;-68
2023/04/15 04:15:24;;;;;;;;;;;7.30;73.30;;;;;;5065643;28;19928;-69
2023/04/15 04:17:51;;;;;;;;;;;7.20;73.30;;;;;;5072080;28;19932;-68
2023/04/15 04:20:19;;;;;;;;;;;7.20;73.40;;;;;;5073132;28;19957;-68
2023/04/15 04:22:45;;;;;;;;;;;7.10;73.50;;;;;;5070494;28;19928;-68
2023/04/15 04:25:12;;;;;;;;;;;7.10;73.70;;;;;;5067009;28;20294;-68
2023/04/15 04:27:38;;;;;;;;;;;7.10;73.70;;;;;;5062876;28;19932;-68
2023/04/15 04:30:05;;;;;;;;;;;7.00;73.80;;;;;;5069258;28;19936;-68
2023/04/15 04:32:32;;;;;;;;;;;7.00;74.00;;;;;;5067275;28;19936;-68
2023/04/15 04:34:58;;;;;;;;;;;6.90;74.10;;;;;;5068108;28;19936;-70
2023/04/15 04:37:26;;;;;;;;;;;6.80;74.10;;;;;;5062409;28;19935;-69
2023/04/15 04:39:53;;;;;;;;;;;6.80;74.30;;;;;;5070501;28;19928;-68
2023/04/15 04:42:19;;;;;;;;;;;6.80;74.40;;;;;;5063961;28;20349;-68
2023/04/15 04:44:46;;;;;;;;;;;6.80;74.40;;;;;;5060627;28;19960;-68
2023/04/15 04:47:12;;;;;;;;;;;6.80;74.40;;;;;;5073085;28;19927;-68
2023/04/15 04:49:39;;;;;;;;;;;6.80;74.40;;;;;;5066851;28;20005;-68
2023/04/15 04:52:06;;;;;;;;;;;6.80;74.40;;;;;;5062931;28;19940;-67
2023/04/15 04:54:34;;;;;;;;;;;6.80;74.50;;;;;;5068340;28;19932;-68
2023/04/15 04:57:01;;;;;;;;;;;6.70;74.50;;;;;;5068825;28;19932;-68
2023/04/15 04:59:27;;;;;;;;;;;6.70;74.50;;;;;;5063957;28;19935;-68
2023/04/15 05:01:54;;;;;;;;;;;6.70;74.70;;;;;;5077997;28;19945;-69
2023/04/15 05:04:20;;;;;;;;;;;6.70;74.70;;;;;;5070089;28;19968;-68
2023/04/15 05:06:47;;;;;;;;;;;6.70;74.80;;;;;;5055294;28;19998;-68
2023/04/15 05:09:13;;;;;;;;;;;6.70;74.80;;;;;;5065617;28;19928;-68
2023/04/15 05:11:41;;;;;;;;;;;6.70;74.80;;;;;;5074572;28;19924;-68
2023/04/15 05:14:08;;;;;;;;;;;6.70;74.80;;;;;;5064673;28;19959;-66
2023/04/15 05:16:34;;;;;;;;;;;6.70;74.70;;;;;;5064276;28;20426;-69
2023/04/15 05:19:01;;;;;;;;;;;6.70;74.70;;;;;;5070159;28;20027;-68
2023/04/15 05:21:27;;;;;;;;;;;6.70;74.80;;;;;;5065209;28;19948;-68
2023/04/15 05:23:54;;;;;;;;;;;6.70;74.80;;;;;;5069811;28;19929;-68
2023/04/15 05:26:21;;;;;;;;;;;6.60;74.80;;;;;;5067594;28;19947;-68
2023/04/15 05:28:49;;;;;;;;;;;6.60;74.90;;;;;;5067178;28;19928;-68
2023/04/15 05:31:16;;;;;;;;;;;6.60;75.00;;;;;;5067241;28;19935;-69
2023/04/15 05:33:42;;;;;;;;;;;6.60;75.00;;;;;;5064273;28;19978;-68
2023/04/15 05:36:09;;;;;;;;;;;6.60;75.10;;;;;;5063690;28;20677;-68
2023/04/15 05:38:36;;;;;;;;;;;6.60;75.10;;;;;;5067846;28;19935;-68
2023/04/15 05:41:02;;;;;;;;;;;6.60;75.10;;;;;;5069538;28;19950;-68
2023/04/15 05:43:29;;;;;;;;;;;6.60;75.10;;;;;;5061150;28;20030;-68
2023/04/15 05:45:57;;;;;;;;;;;6.60;75.20;;;;;;5067109;28;19928;-68
2023/04/15 05:48:23;;;;;;;;;;;6.60;75.20;;;;;;5063700;28;19935;-69
2023/04/15 05:50:50;;;;;;;;;;;6.60;75.20;;;;;;5054779;28;19928;-68
2023/04/15 05:53:17;;;;;;;;;;;6.60;75.30;;;;;;5062308;28;19952;-68
2023/04/15 05:55:43;;;;;;;;;;;6.60;75.30;;;;;;5077579;28;20305;-68
2023/04/15 05:58:10;;;;;;;;;;;6.60;75.30;;;;;;5061857;28;19928;-68
2023/04/15 06:00:36;;;;;;;;;;;6.60;75.30;;;;;;5074966;28;19932;-68
2023/04/15 06:03:05;;;;;;;;;;;6.60;75.40;;;;;;5069497;28;19928;-68
2023/04/15 06:05:31;;;;;;;;;;;6.60;75.40;;;;;;5063837;28;19936;-68
2023/04/15 06:07:58;;;;;;;;;;;6.60;75.40;;;;;;5069314;28;19986;-68
2023/04/15 06:10:24;;;;;;;;;;;6.60;75.50;;;;;;5065057;28;19929;-68
2023/04/15 06:12:52;;;;;;;;;;;6.60;75.50;;;;;;5066547;28;19932;-68
2023/04/15 06:15:19;;;;;;;;;;;6.50;75.50;;;;;;5066103;28;20394;-69
2023/04/15 06:17:45;;;;;;;;;;;6.60;75.60;;;;;;5067937;28;20402;-69
2023/04/15 06:20:13;;;;;;;;;;;6.50;75.50;;;;;;5065449;28;19933;-69
2023/04/15 06:22:40;;;;;;;;;;;6.50;75.70;;;;;;5073262;28;20402;-68
2023/04/15 06:25:08;;;;;;;;;;;6.50;75.70;;;;;;5067915;28;19928;-68
2023/04/15 06:27:34;;;;;;;;;;;6.50;75.80;;;;;;5059223;28;19928;-69
2023/04/15 06:30:01;;;;;;;;;;;6.60;75.90;;;;;;5068358;28;19928;-67
2023/04/15 06:32:27;;;;;;;;;;;6.50;75.90;;;;;;5062359;28;19943;-67
2023/04/15 06:34:54;;;;;;;;;;;6.50;75.90;;;;;;5072556;28;19928;-68
2023/04/15 06:37:22;;;;;;;;;;;6.50;75.90;;;;;;5060604;28;20421;-68
2023/04/15 06:39:48;;;;;;;;;;;6.60;76.00;;;;;;5068394;28;20775;-68
2023/04/15 06:42:15;;;;;;;;;;;6.60;76.00;;;;;;5060742;28;19928;-69
2023/04/15 06:44:42;;;;;;;;;;;6.60;76.10;;;;;;5062951;28;20432;-68
2023/04/15 06:47:08;;;;;;;;;;;6.60;76.10;;;;;;5062638;28;19928;-67
2023/04/15 06:49:35;;;;;;;;;;;6.60;76.10;;;;;;5070794;28;20085;-68
2023/04/15 06:52:03;;;;;;;;;;;6.60;76.10;;;;;;5061293;28;19939;-68
2023/04/15 06:54:31;;;;;;;;;;;6.60;76.10;;;;;;5062105;28;19939;-68
2023/04/15 06:56:58;;;;;;;;;;;6.60;76.10;;;;;;5072768;28;19943;-69
2023/04/15 06:59:26;;;;;;;;;;;6.60;76.10;;;;;;5062465;28;19928;-68
2023/04/15 07:01:52;;;;;;;;;;;6.60;76.10;;;;;;5073938;28;19939;-68
2023/04/15 07:04:19;;;;;;;;;;;6.60;76.20;;;;;;5069090;28;20338;-68
2023/04/15 07:06:45;;;;;;;;;;;6.60;76.10;;;;;;5056938;28;21639;-69
2023/04/15 07:09:12;;;;;;;;;;;6.70;76.10;;;;;;5065794;28;20458;-68
2023/04/15 07:11:40;;;;;;;;;;;6.60;76.10;;;;;;5065037;28;19940;-68
2023/04/15 07:14:07;;;;;;;;;;;6.70;76.10;;;;;;5065162;28;19935;-69
2023/04/15 07:16:33;;;;;;;;;;;6.70;76.00;;;;;;5070899;28;19927;-68
2023/04/15 07:19:00;;;;;;;;;;;6.70;76.00;;;;;;5065609;28;19932;-68
2023/04/15 07:21:26;;;;;;;;;;;6.70;75.90;;;;;;5073932;28;19934;-68
2023/04/15 07:23:53;;;;;;;;;;;6.70;75.80;;;;;;5058739;28;20034;-68
2023/04/15 07:26:19;;;;;;;;;;;6.80;75.80;;;;;;5071527;28;19935;-67
2023/04/15 07:28:47;;;;;;;;;;;6.70;75.80;;;;;;5066712;28;19935;-68
2023/04/15 07:31:15;;;;;;;;;;;6.80;75.80;;;;;;5068154;28;19935;-68
2023/04/15 07:33:41;;;;;;;;;;;6.80;76.00;;;;;;5071027;28;19929;-68
2023/04/15 07:36:08;;;;;;;;;;;6.80;76.20;;;;;;5069246;28;20006;-69
2023/04/15 07:38:34;;;;;;;;;;;6.80;76.00;;;;;;5067107;28;19932;-68
2023/04/15 07:41:01;;;;;;;;;;;6.80;76.00;;;;;;5071942;28;19928;-68
2023/04/15 07:43:27;;;;;;;;;;;6.90;76.00;;;;;;5070473;28;19935;-68
2023/04/15 07:45:55;;;;;;;;;;;6.90;75.90;;;;;;5066222;28;19934;-69
2023/04/15 07:48:22;;;;;;;;;;;6.90;75.90;;;;;;5074754;28;19944;-68
2023/04/15 07:50:48;;;;;;;;;;;6.90;75.90;;;;;;5065593;28;19925;-68
2023/04/15 07:53:15;;;;;;;;;;;7.00;76.10;;;;;;5061771;28;19937;-69
2023/04/15 07:55:41;;;;;;;;;;;7.00;76.10;;;;;;5067054;28;20291;-68
2023/04/15 07:58:08;;;;;;;;;;;7.00;76.20;;;;;;5063684;28;19955;-68
2023/04/15 08:00:35;;;;;;;;;;;7.00;76.40;;;;;;5075938;28;20409;-69
2023/04/15 08:03:02;;;;;;;;;;;7.10;76.60;;;;;;5070912;28;19929;-69
2023/04/15 08:05:29;;;;;;;;;;;7.10;76.50;;;;;;5056016;28;19928;-68
2023/04/15 08:07:56;;;;;;;;;;;7.10;76.40;;;;;;5072812;28;20409;-68
2023/04/15 08:10:22;;;;;;;;;;;7.10;76.30;;;;;;5066271;28;19936;-69
2023/04/15 08:12:53;;;;;;;;;;;7.20;76.40;;;;;;5065129;28;19936;-68
2023/04/15 08:15:19;;;;;;;;;;;7.20;76.30;;;;;;5064481;28;20372;-68
2023/04/15 08:17:46;;;;;;;;;;;7.20;76.30;;;;;;5076696;28;19939;-69
2023/04/15 08:20:14;;;;;;;;;;;7.30;76.50;;;;;;5072801;28;19928;-68
2023/04/15 08:22:41;;;;;;;;;;;7.30;76.50;;;;;;5070940;28;19928;-68
2023/04/15 08:25:09;;;;;;;;;;;7.30;76.50;;;;;;5066113;28;20056;-68
2023/04/15 08:27:36;;;;;;;;;;;7.30;76.50;;;;;;5069905;28;19928;-69
2023/04/15 08:30:03;;;;;;;;;;;7.40;76.60;;;;;;5065332;28;19938;-68
2023/04/15 08:32:30;;;;;;;;;;;7.40;76.50;;;;;;5064865;28;19935;-68
2023/04/15 08:34:56;;;;;;;;;;;7.40;76.30;;;;;;5066559;28;19932;-69
2023/04/15 08:37:25;;;;;;;;;;;7.50;76.40;;;;;;5062908;28;19939;-68
2023/04/15 08:39:52;;;;;;;;;;;7.50;76.50;;;;;;5067981;28;20027;-68
2023/04/15 08:42:23;;;;;;;;;;;7.50;76.70;;;;;;5062581;28;19929;-69
2023/04/15 08:44:49;;;;;;;;;;;7.60;76.70;;;;;;5064674;28;19952;-69
2023/04/15 08:47:18;;;;;;;;;;;7.60;76.70;;;;;;5071310;28;19927;-69
2023/04/15 08:49:47;;;;;;;;;;;7.60;76.60;;;;;;5069307;28;19936;-66
2023/04/15 08:52:13;;;;;;;;;;;7.80;77.20;;;;;;5069761;28;19997;-68
2023/04/15 08:54:41;;;;;;;;;;;7.70;77.00;;;;;;5066285;28;20360;-68
2023/04/15 08:57:08;;;;;;;;;;;7.80;76.90;;;;;;5069171;28;19932;-68
2023/04/15 08:59:35;;;;;;;;;;;7.80;76.60;;;;;;5061429;28;19928;-69
2023/04/15 09:02:02;;;;;;;;;;;7.90;76.60;;;;;;5058704;28;20314;-68
2023/04/15 09:04:28;;;;;;;;;;;7.90;76.50;;;;;;5065300;28;19936;-69
2023/04/15 09:06:56;;;;;;;;;;;7.90;76.50;;;;;;5073586;28;20020;-69
2023/04/15 09:09:22;;;;;;;;;;;8.00;76.40;;;;;;5065953;28;20486;-69
2023/04/15 09:11:50;;;;;;;;;;;8.00;76.40;;;;;;5070407;28;19936;-68
2023/04/15 09:14:17;;;;;;;;;;;8.10;76.60;;;;;;5066565;28;19932;-67
2023/04/15 09:17:01;;;;;;;;;;;8.20;76.70;;;;;;5066439;28;19929;-70
2023/04/15 09:19:28;;;;;;;;;;;8.20;76.90;;;;;;5065998;28;19935;-68
2023/04/15 09:21:56;;;;;;;;;;;8.20;76.90;;;;;;5076736;28;19953;-68
2023/04/15 09:24:23;;;;;;;;;;;8.30;77.00;;;;;;5074394;28;20027;-69
2023/04/15 09:26:54;;;;;;;;;;;8.30;76.80;;;;;;5065463;28;19929;-68
2023/04/15 09:29:20;;;;;;;;;;;8.40;76.80;;;;;;5066962;28;19990;-69
2023/04/15 09:31:47;;;;;;;;;;;8.40;76.60;;;;;;5063522;28;19935;-69
2023/04/15 09:34:13;;;;;;;;;;;8.50;76.50;;;;;;5069100;28;20295;-68
2023/04/15 09:36:51;;;;;;;;;;;8.50;76.40;;;;;;5066782;28;20512;-66
2023/04/15 09:39:18;;;;;;;;;;;8.60;76.60;;;;;;5060439;28;20011;-67
2023/04/15 09:41:45;;;;;;;;;;;8.70;76.90;;;;;;5066511;28;19937;-67
2023/04/15 09:44:23;;;;;;;;;;;8.70;76.90;;;;;;5057111;28;19928;-68
2023/04/15 09:46:50;;;;;;;;;;;8.80;76.80;;;;;;5064660;28;19928;-70
2023/04/15 09:49:17;;;;;;;;;;;8.90;76.60;;;;;;5063593;28;19928;-69
2023/04/15 09:51:44;;;;;;;;;;;9.00;76.50;;;;;;5061305;28;20011;-69
2023/04/15 09:54:10;;;;;;;;;;;9.10;76.30;;;;;;5061213;28;19963;-70
2023/04/15 09:56:37;;;;;;;;;;;9.10;76.10;;;;;;5065879;28;20421;-68
2023/04/15 09:59:05;;;;;;;;;;;9.20;76.10;;;;;;5067590;28;20023;-66
2023/04/15 10:01:33;;;;;;;;;;;9.30;76.00;;;;;;5069455;28;19935;-68
2023/04/15 10:04:02;;;;;;;;;;;9.30;75.90;;;;;;5066014;28;20312;-68
2023/04/15 10:06:29;;;;;;;;;;;9.30;75.70;;;;;;5068577;28;19928;-69
2023/04/15 10:08:56;;;;;;;;;;;9.40;75.60;;;;;;5070504;28;20424;-69
2023/04/15 10:11:24;;;;;;;;;;;9.50;75.60;;;;;;5073219;28;20400;-68
2023/04/15 10:13:51;;;;;;;;;;;9.50;75.40;;;;;;5061192;28;20814;-68
2023/04/15 10:16:20;;;;;;;;;;;9.60;75.50;;;;;;5064097;28;19935;-69
2023/04/15 10:18:54;;;;;;;;;;;9.60;75.20;;;;;;5071857;28;19928;-68
2023/04/15 10:21:22;;;;;;;;;;;9.60;75.00;;;;;;5075691;28;20601;-69
2023/04/15 10:23:49;;;;;;;;;;;9.80;75.60;;;;;;5067992;28;19990;-68
2023/04/15 10:26:16;;;;;;;;;;;9.90;74.90;;;;;;5067124;28;19939;-69
2023/04/15 10:28:43;;;;;;;;;;;10.00;74.70;;;;;;5062075;28;20414;-68
2023/04/15 10:31:11;;;;;;;;;;;10.00;74.40;;;;;;5062754;28;19936;-68
2023/04/15 10:33:39;;;;;;;;;;;10.10;74.30;;;;;;5062641;28;19928;-69
2023/04/15 10:36:07;;;;;;;;;;;10.10;74.10;;;;;;5065476;28;19932;-67
2023/04/15 10:38:35;;;;;;;;;;;10.10;74.00;;;;;;5062573;28;20376;-68
2023/04/15 10:41:23;;;;;;;;;;;10.20;73.90;;;;;;5067105;28;20394;-68
2023/04/15 10:43:51;;;;;;;;;;;10.30;73.50;;;;;;5054730;28;19936;-69
2023/04/15 10:46:22;;;;;;;;;;;10.30;73.10;;;;;;5071100;28;20021;-68
2023/04/15 10:48:50;;;;;;;;;;;10.40;72.90;;;;;;5066625;28;19928;-69
2023/04/15 10:51:26;;;;;;;;;;;10.40;72.80;;;;;;5067612;28;19936;-69
2023/04/15 10:53:56;;;;;;;;;;;10.40;72.60;;;;;;5058552;28;19981;-68
2023/04/15 10:56:22;;;;;;;;;;;10.50;72.50;;;;;;5068541;28;19935;-68
2023/04/15 10:58:50;;;;;;;;;;;10.50;72.40;;;;;;5067848;28;19935;-70
2023/04/15 11:01:16;;;;;;;;;;;10.60;72.40;;;;;;5066384;28;20398;-68
2023/04/15 11:03:43;;;;;;;;;;;10.60;72.30;;;;;;5072891;28;20035;-68
2023/04/15 11:06:10;;;;;;;;;;;10.60;72.30;;;;;;5071377;28;19932;-70
2023/04/15 11:08:57;;;;;;;;;;;10.70;72.30;;;;;;5070638;28;19932;-69
2023/04/15 11:11:55;;;;;;;;;;;10.70;71.90;;;;;;5065357;28;19940;-69
2023/04/15 11:14:22;;;;;;;;;;;10.80;71.70;;;;;;5061609;28;19934;-69
2023/04/15 11:16:48;;;;;;;;;;;10.80;71.70;;;;;;5064234;28;19935;-69
2023/04/15 11:19:17;;;;;;;;;;;10.90;71.70;;;;;;5069945;28;21333;-68
2023/04/15 11:21:43;;;;;;;;;;;10.90;71.60;;;;;;5072427;28;20425;-68
2023/04/15 11:24:11;;;;;;;;;;;11.00;71.10;;;;;;5065753;28;19932;-68
2023/04/15 11:26:38;;;;;;;;;;;11.00;70.90;;;;;;5067334;28;19932;-69
2023/04/15 11:29:05;;;;;;;;;;;11.10;70.70;;;;;;5061491;28;20630;-68
2023/04/15 11:31:32;;;;;;;;;;;11.20;70.60;;;;;;5065564;28;20306;-69
2023/04/15 11:34:00;;;;;;;;;;;11.20;70.30;;;;;;5068427;28;19935;-70
2023/04/15 11:36:27;;;;;;;;;;;11.30;70.10;;;;;;5059779;28;19929;-67
2023/04/15 11:38:54;;;;;;;;;;;11.30;70.00;;;;;;5067184;28;20330;-68
2023/04/15 11:41:22;;;;;;;;;;;11.40;70.20;;;;;;5066580;28;19928;-68
2023/04/15 11:43:48;;;;;;;;;;;11.50;70.10;;;;;;5056993;28;20051;-69
2023/04/15 11:46:15;;;;;;;;;;;11.60;69.20;;;;;;5070495;28;19936;-69
2023/04/15 11:48:42;;;;;;;;;;;11.70;68.80;;;;;;5067600;28;19935;-69
2023/04/15 11:51:09;;;;;;;;;;;11.80;68.70;;;;;;5067085;28;19940;-69
2023/04/15 11:53:40;;;;;;;;;;;11.90;68.30;;;;;;5065342;28;20434;-69
2023/04/15 11:56:07;;;;;;;;;;;12.00;67.70;;;;;;5071520;28;21008;-69
2023/04/15 11:58:36;;;;;;;;;;;12.10;67.40;;;;;;5063203;28;19928;-68
2023/04/15 12:01:03;;;;;;;;;;;12.10;67.20;;;;;;5068884;28;19964;-67
2023/04/15 12:03:31;;;;;;;;;;;12.20;66.70;;;;;;5070040;28;19935;-68
2023/04/15 12:06:09;;;;;;;;;;;12.30;66.60;;;;;;5070160;28;19932;-68
2023/04/15 12:08:54;;;;;;;;;;;12.30;66.40;;;;;;5064935;28;19933;-69
2023/04/15 12:11:21;;;;;;;;;;;12.40;66.30;;;;;;5064897;28;19928;-69
2023/04/15 12:13:50;;;;;;;;;;;12.40;65.80;;;;;;5059940;28;19928;-68
2023/04/15 12:16:17;;;;;;;;;;;12.50;65.80;;;;;;5059999;28;20401;-68
2023/04/15 12:18:45;;;;;;;;;;;12.50;66.00;;;;;;5065003;28;19933;-69
2023/04/15 12:21:11;;;;;;;;;;;12.50;65.80;;;;;;5077766;28;19951;-69
2023/04/15 12:23:38;;;;;;;;;;;12.50;65.10;;;;;;5067617;28;19935;-69
2023/04/15 12:26:05;;;;;;;;;;;12.60;65.80;;;;;;5061295;28;19936;-68
2023/04/15 12:28:32;;;;;;;;;;;12.60;64.50;;;;;;5068258;28;19925;-69
2023/04/15 12:30:59;;;;;;;;;;;12.60;63.50;;;;;;5068185;28;19935;-69
2023/04/15 12:33:32;;;;;;;;;;;12.60;62.90;;;;;;5069444;28;19936;-69
2023/04/15 12:35:59;;;;;;;;;;;12.70;63.30;;;;;;5068303;28;20324;-70
2023/04/15 12:38:25;;;;;;;;;;;12.70;63.40;;;;;;5069314;28;20026;-69
2023/04/15 12:40:52;;;;;;;;;;;12.70;63.20;;;;;;5076005;28;19935;-68
2023/04/15 12:43:18;;;;;;;;;;;12.70;63.10;;;;;;5064454;28;19928;-68
2023/04/15 12:45:45;;;;;;;;;;;12.70;62.90;;;;;;5068808;28;20010;-69
2023/04/15 12:48:13;;;;;;;;;;;12.70;62.60;;;;;;5068936;28;20450;-68
2023/04/15 12:50:40;;;;;;;;;;;12.80;62.30;;;;;;5068106;28;19928;-68
2023/04/15 12:53:06;;;;;;;;;;;12.80;62.40;;;;;;5062805;28;20140;-68
2023/04/15 12:55:33;;;;;;;;;;;12.80;62.40;;;;;;5074820;28;20559;-68
2023/04/15 12:57:59;;;;;;;;;;;12.80;60.50;;;;;;5061562;28;19928;-70
2023/04/15 13:00:26;;;;;;;;;;;12.80;61.00;;;;;;5071789;28;19939;-68
2023/04/15 13:02:53;;;;;;;;;;;12.80;59.40;;;;;;5067591;28;19928;-68
2023/04/15 13:05:21;;;;;;;;;;;12.70;59.50;;;;;;5074309;28;20465;-68
2023/04/15 13:07:48;;;;;;;;;;;12.80;59.90;;;;;;5067360;28;20706;-68
2023/04/15 13:10:14;;;;;;;;;;;12.80;60.00;;;;;;5071804;28;19943;-68
2023/04/15 13:12:41;;;;;;;;;;;12.80;60.90;;;;;;5063414;28;19959;-68
2023/04/15 13:15:09;;;;;;;;;;;12.80;60.20;;;;;;5071569;28;20356;-68
2023/04/15 13:17:36;;;;;;;;;;;12.80;59.90;;;;;;5062392;28;19928;-68
2023/04/15 13:20:02;;;;;;;;;;;12.80;59.70;;;;;;5076672;28;19950;-69
2023/04/15 13:22:30;;;;;;;;;;;12.80;59.70;;;;;;5069673;28;19963;-69
2023/04/15 13:24:57;;;;;;;;;;;12.90;59.70;;;;;;5073080;28;19928;-69
2023/04/15 13:27:23;;;;;;;;;;;12.80;59.60;;;;;;5066858;28;20465;-69
2023/04/15 13:29:50;;;;;;;;;;;12.80;59.60;;;;;;5066257;28;19936;-69
2023/04/15 13:32:16;;;;;;;;;;;12.90;59.80;;;;;;5066764;28;19928;-68
2023/04/15 13:34:43;;;;;;;;;;;12.80;59.90;;;;;;5066305;28;19928;-69
2023/04/15 13:37:09;;;;;;;;;;;12.80;59.80;;;;;;5063047;28;19928;-69
2023/04/15 13:39:37;;;;;;;;;;;12.80;59.80;;;;;;5070376;28;19967;-69
2023/04/15 13:42:04;;;;;;;;;;;12.90;60.00;;;;;;5064855;28;19950;-69
2023/04/15 13:44:31;;;;;;;;;;;12.80;59.90;;;;;;5068595;28;19948;-68
2023/04/15 13:46:57;;;;;;;;;;;12.80;59.80;;;;;;5067973;28;19935;-68
2023/04/15 13:49:24;;;;;;;;;;;12.80;59.70;;;;;;5072292;28;19937;-69
2023/04/15 13:51:50;;;;;;;;;;;12.80;59.80;;;;;;5059439;28;19928;-69
2023/04/15 13:54:17;;;;;;;;;;;12.80;59.80;;;;;;5066466;28;20515;-68
2023/04/15 13:56:45;;;;;;;;;;;12.90;59.50;;;;;;5067646;28;19935;-69
2023/04/15 13:59:11;;;;;;;;;;;12.90;59.50;;;;;;5061270;28;19936;-68
2023/04/15 14:01:40;;;;;;;;;;;12.80;59.50;;;;;;5068693;28;19928;-68
2023/04/15 14:04:06;;;;;;;;;;;12.90;59.50;;;;;;5073971;28;19975;-68
2023/04/15 14:06:33;;;;;;;;;;;12.90;59.60;;;;;;5066616;28;19935;-70
2023/04/15 14:08:59;;;;;;;;;;;12.80;59.70;;;;;;5067499;28;19928;-68
2023/04/15 14:11:26;;;;;;;;;;;12.80;59.60;;;;;;5069234;28;20546;-68
2023/04/15 14:13:54;;;;;;;;;;;12.90;59.50;;;;;;5065990;28;19939;-69
2023/04/15 14:16:20;;;;;;;;;;;12.90;59.50;;;;;;5065074;28;20025;-69
2023/04/15 14:18:47;;;;;;;;;;;12.90;59.50;;;;;;5065353;28;19954;-68
2023/04/15 14:21:13;;;;;;;;;;;12.90;59.40;;;;;;5071652;28;19943;-69
2023/04/15 14:23:40;;;;;;;;;;;12.90;59.40;;;;;;5067468;28;19935;-68
2023/04/15 14:26:07;;;;;;;;;;;12.90;59.50;;;;;;5069857;28;19929;-68
2023/04/15 14:28:34;;;;;;;;;;;12.80;59.40;;;;;;5067094;28;19928;-69
2023/04/15 14:31:02;;;;;;;;;;;12.90;59.40;;;;;;5066106;28;20333;-68